createdAt,value
2023-02-21T00:02:36.060Z,1.45
2023-02-21T00:05:21.639Z,1.30
2023-02-21T00:08:07.170Z,1.25
2023-02-21T00:10:52.797Z,1.02
2023-02-21T00:13:38.104Z,0.90
2023-02-21T00:16:23.852Z,1.50
2023-02-21T00:19:09.381Z,1.00
2023-02-21T00:21:54.756Z,1.00
2023-02-21T00:24:40.201Z,1.17
2023-02-21T00:27:25.628Z,1.40
2023-02-21T00:30:11.336Z,1.30
2023-02-21T00:32:56.887Z,1.55
2023-02-21T00:35:42.594Z,1.15
2023-02-21T00:38:29.488Z,0.88
2023-02-21T00:41:15.295Z,1.02
2023-02-21T00:44:00.866Z,1.35
2023-02-21T00:46:46.198Z,1.40
2023-02-21T00:49:31.861Z,1.13
2023-02-21T00:52:17.524Z,1.00
2023-02-21T00:55:03.114Z,1.15
2023-02-21T00:57:48.736Z,1.08
2023-02-21T01:00:38.587Z,1.02
2023-02-21T01:03:24.789Z,0.80
2023-02-21T01:06:12.578Z,0.95
2023-02-21T01:09:03.264Z,1.45
2023-02-21T01:11:49.446Z,1.33
2023-02-21T01:14:34.930Z,1.40
2023-02-21T01:17:20.643Z,1.00
2023-02-21T01:20:06.368Z,1.45
2023-02-21T01:22:51.721Z,1.20
2023-02-21T01:25:37.701Z,1.20
2023-02-21T01:28:23.377Z,1.60
2023-02-21T01:31:09.066Z,1.38
2023-02-21T01:34:00.856Z,1.50
2023-02-21T01:36:46.988Z,1.33
2023-02-21T01:39:32.448Z,1.00
2023-02-21T01:42:19.033Z,1.73
2023-02-21T01:45:06.332Z,1.15
2023-02-21T01:47:53.106Z,1.10
2023-02-21T01:50:46.608Z,1.30
2023-02-21T01:53:42.816Z,1.40
2023-02-21T01:56:28.835Z,1.40
2023-02-21T01:59:19.440Z,1.80
2023-02-21T02:02:06.699Z,1.38
2023-02-21T02:04:52.895Z,1.13
2023-02-21T02:07:39.277Z,1.05
2023-02-21T02:10:27.598Z,1.27
2023-02-21T02:13:32.408Z,1.10
2023-02-21T02:16:16.553Z,1.10
2023-02-21T02:18:45.942Z,2.03
2023-02-21T02:22:01.242Z,1.10
2023-02-21T02:24:40.101Z,0.90
2023-02-21T02:27:16.063Z,1.20
2023-02-21T02:29:48.587Z,0.77
2023-02-21T02:32:58.241Z,1.00
2023-02-21T02:35:43.471Z,0.80
2023-02-21T02:38:21.795Z,0.55
2023-02-21T02:41:27.033Z,0.90
2023-02-21T02:44:42.537Z,1.67
2023-02-21T02:47:19.393Z,1.33
2023-02-21T02:49:48.364Z,1.05
2023-02-21T02:52:15.291Z,0.93
2023-02-21T02:54:42.201Z,0.70
2023-02-21T02:57:13.349Z,0.88
2023-02-21T02:59:46.692Z,0.93
2023-02-21T03:02:37.978Z,0.77
2023-02-21T03:05:43.597Z,0.90
2023-02-21T03:08:16.242Z,1.02
2023-02-21T03:11:01.845Z,0.90
2023-02-21T03:13:44.129Z,1.00
2023-02-21T03:16:33.525Z,0.98
2023-02-21T03:19:17.954Z,0.85
2023-02-21T03:21:58.031Z,1.02
2023-02-21T03:24:27.565Z,1.30
2023-02-21T03:26:59.758Z,1.05
2023-02-21T03:29:27.325Z,1.13
2023-02-21T03:32:00.193Z,1.10
2023-02-21T03:34:27.361Z,1.13
2023-02-21T03:36:54.338Z,0.80
2023-02-21T03:39:21.245Z,0.60
2023-02-21T03:41:48.201Z,0.60
2023-02-21T03:44:15.464Z,0.60
2023-02-21T03:46:42.362Z,0.90
2023-02-21T03:49:09.338Z,0.55
2023-02-21T03:51:36.244Z,0.88
2023-02-21T03:54:03.158Z,0.88
2023-02-21T03:56:41.206Z,0.47
2023-02-21T03:59:09.074Z,0.90
2023-02-21T04:01:36.092Z,0.70
2023-02-21T04:04:03.059Z,1.15
2023-02-21T04:06:29.973Z,0.95
2023-02-21T04:08:56.957Z,0.75
2023-02-21T04:11:23.885Z,0.93
2023-02-21T04:13:50.787Z,1.10
2023-02-21T04:16:17.823Z,0.85
2023-02-21T04:18:44.813Z,1.15
2023-02-21T04:21:11.785Z,1.10
2023-02-21T04:23:38.739Z,1.20
2023-02-21T04:26:05.743Z,0.90
2023-02-21T04:28:33.029Z,0.98
2023-02-21T04:30:59.972Z,0.95
2023-02-21T04:33:26.992Z,1.20
2023-02-21T04:35:53.882Z,1.10
2023-02-21T04:38:21.016Z,0.95
2023-02-21T04:40:47.946Z,0.80
2023-02-21T04:43:14.896Z,0.80
2023-02-21T04:45:41.868Z,0.63
2023-02-21T04:48:08.872Z,0.50
2023-02-21T04:50:35.867Z,0.90
2023-02-21T04:53:02.832Z,0.70
2023-02-21T04:55:29.729Z,0.80
2023-02-21T04:57:56.670Z,0.88
2023-02-21T05:00:23.892Z,0.65
2023-02-21T05:02:50.983Z,1.02
2023-02-21T05:05:18.093Z,0.65
2023-02-21T05:07:45.048Z,1.23
2023-02-21T05:10:12.969Z,1.10
2023-02-21T05:12:40.013Z,0.82
2023-02-21T05:15:08.059Z,1.02
2023-02-21T05:17:35.311Z,0.63
2023-02-21T05:20:02.828Z,0.95
2023-02-21T05:22:29.952Z,1.00
2023-02-21T05:24:56.892Z,1.15
2023-02-21T05:27:23.850Z,1.55
2023-02-21T05:29:52.979Z,1.13
2023-02-21T05:32:21.988Z,1.20
2023-02-21T05:34:49.093Z,1.05
2023-02-21T05:37:16.867Z,1.40
2023-02-21T05:39:44.400Z,1.27
2023-02-21T05:42:11.538Z,1.55
2023-02-21T05:44:38.438Z,1.20
2023-02-21T05:47:07.302Z,1.10
2023-02-21T05:49:34.276Z,1.10
2023-02-21T05:52:01.171Z,1.17
2023-02-21T05:54:28.217Z,1.30
2023-02-21T05:56:55.131Z,1.38
2023-02-21T05:59:22.299Z,1.02
2023-02-21T06:01:50.306Z,1.42
2023-02-21T06:04:18.061Z,1.40
2023-02-21T06:06:45.117Z,1.63
2023-02-21T06:09:12.394Z,1.30
2023-02-21T06:11:40.585Z,1.02
2023-02-21T06:14:17.029Z,1.67
2023-02-21T06:16:44.620Z,1.77
2023-02-21T06:19:13.513Z,1.75
2023-02-21T06:21:42.096Z,1.40
2023-02-21T06:24:10.134Z,1.67
2023-02-21T06:26:37.634Z,1.25
2023-02-21T06:29:05.783Z,1.98
2023-02-21T06:31:32.822Z,1.67
2023-02-21T06:34:00.507Z,1.55
2023-02-21T06:36:29.098Z,1.90
2023-02-21T06:38:57.396Z,1.25
2023-02-21T06:41:27.409Z,1.20
2023-02-21T06:43:56.800Z,1.85
2023-02-21T06:46:26.452Z,1.30
2023-02-21T06:48:53.651Z,1.63
2023-02-21T06:51:20.828Z,1.25
2023-02-21T06:53:50.817Z,1.23
2023-02-21T06:56:17.882Z,1.50
2023-02-21T06:58:45.044Z,1.60
2023-02-21T07:01:12.047Z,1.60
2023-02-21T07:03:44.372Z,1.75
2023-02-21T07:06:11.389Z,1.45
2023-02-21T07:08:38.450Z,2.33
2023-02-21T07:11:06.045Z,1.98
2023-02-21T07:13:33.657Z,1.90
2023-02-21T07:16:02.090Z,2.00
2023-02-21T07:18:29.181Z,1.67
2023-02-21T07:20:56.104Z,1.20
2023-02-21T07:23:22.986Z,1.63
2023-02-21T07:25:50.134Z,1.42
2023-02-21T07:28:17.221Z,1.30
2023-02-21T07:30:44.257Z,1.20
2023-02-21T07:33:11.220Z,1.40
2023-02-21T07:35:38.150Z,1.65
2023-02-21T07:38:05.342Z,1.70
2023-02-21T07:40:32.390Z,1.60
2023-02-21T07:42:59.358Z,2.08
2023-02-21T07:45:26.448Z,1.77
2023-02-21T07:47:53.884Z,1.55
2023-02-21T07:50:23.686Z,1.25
2023-02-21T07:52:50.808Z,1.60
2023-02-21T07:55:17.889Z,1.17
2023-02-21T07:57:45.838Z,1.55
2023-02-21T08:00:13.078Z,1.60
2023-02-21T08:02:40.577Z,1.50
2023-02-21T08:05:09.068Z,1.85
2023-02-21T08:07:36.088Z,1.40
2023-02-21T08:10:03.951Z,1.95
2023-02-21T08:12:30.916Z,1.77
2023-02-21T08:14:57.885Z,1.38
2023-02-21T08:17:24.908Z,1.60
2023-02-21T08:19:54.219Z,1.50
2023-02-21T08:22:21.181Z,1.35
2023-02-21T08:24:51.105Z,1.15
2023-02-21T08:27:18.771Z,1.20
2023-02-21T08:29:49.440Z,1.70
2023-02-21T08:32:16.692Z,1.52
2023-02-21T08:34:50.441Z,1.48
2023-02-21T08:37:19.953Z,1.67
2023-02-21T08:39:48.028Z,1.75
2023-02-21T08:42:15.348Z,1.90
2023-02-21T08:44:46.527Z,1.63
2023-02-21T08:47:15.925Z,1.85
2023-02-21T08:49:49.156Z,1.40
2023-02-21T08:52:17.550Z,1.60
2023-02-21T08:54:45.246Z,1.27
2023-02-21T08:57:14.338Z,1.92
2023-02-21T08:59:45.243Z,1.65
2023-02-21T09:02:17.530Z,1.40
2023-02-21T09:04:45.169Z,1.60
2023-02-21T09:07:16.992Z,2.28
2023-02-21T09:09:43.963Z,1.98
2023-02-21T09:12:11.044Z,1.42
2023-02-21T09:14:40.778Z,1.88
2023-02-21T09:17:10.746Z,1.63
2023-02-21T09:19:37.797Z,1.90
2023-02-21T09:22:07.655Z,1.50
2023-02-21T09:24:34.918Z,1.60
2023-02-21T09:27:04.581Z,1.60
2023-02-21T09:29:45.087Z,1.52
2023-02-21T09:32:14.222Z,1.63
2023-02-21T09:34:41.555Z,2.05
2023-02-21T09:37:08.719Z,1.20
2023-02-21T09:39:39.265Z,1.48
2023-02-21T09:42:06.452Z,2.13
2023-02-21T09:44:34.286Z,1.95
2023-02-21T09:47:05.153Z,1.80
2023-02-21T09:49:36.823Z,1.70
2023-02-21T09:52:04.400Z,2.28
2023-02-21T09:54:36.861Z,1.42
2023-02-21T09:57:13.582Z,2.55
2023-02-21T09:59:40.737Z,1.48
2023-02-21T10:02:10.357Z,1.40
2023-02-21T10:04:59.159Z,2.20
2023-02-21T10:07:45.590Z,2.10
2023-02-21T10:10:37.402Z,1.92
2023-02-21T10:13:23.221Z,1.60
2023-02-21T10:16:29.220Z,1.88
2023-02-21T10:19:02.272Z,1.00
2023-02-21T10:21:33.673Z,1.10
2023-02-21T10:24:05.204Z,0.70
2023-02-21T10:26:41.182Z,1.40
2023-02-21T10:29:20.886Z,1.08
2023-02-21T10:31:52.924Z,0.90
2023-02-21T10:34:29.128Z,0.90
2023-02-21T10:36:59.160Z,0.70
2023-02-21T10:39:42.640Z,1.02
2023-02-21T10:42:51.336Z,0.90
2023-02-21T10:45:19.216Z,1.60
2023-02-21T10:48:01.435Z,1.27
2023-02-21T10:50:42.607Z,1.02
2023-02-21T10:53:22.704Z,0.63
2023-02-21T10:56:20.085Z,0.75
2023-02-21T10:59:07.325Z,0.63
2023-02-21T11:01:43.338Z,0.60
2023-02-21T11:04:27.283Z,0.73
2023-02-21T11:07:08.810Z,0.52
2023-02-21T11:09:37.838Z,0.50
2023-02-21T11:12:21.109Z,0.38
2023-02-21T11:14:51.004Z,0.45
2023-02-21T11:17:34.361Z,1.42
2023-02-21T11:20:02.623Z,0.40
2023-02-21T11:22:43.245Z,0.30
2023-02-21T11:25:24.437Z,0.47
2023-02-21T11:28:03.305Z,0.47
2023-02-21T11:30:33.532Z,0.40
2023-02-21T11:33:02.013Z,0.57
2023-02-21T11:35:44.607Z,0.47
2023-02-21T11:38:30.875Z,0.60
2023-02-21T11:40:57.818Z,0.47
2023-02-21T11:43:29.830Z,0.60
2023-02-21T11:46:29.277Z,0.57
2023-02-21T11:49:15.354Z,0.75
2023-02-21T11:51:51.272Z,0.60
2023-02-21T11:54:22.760Z,0.73
2023-02-21T11:57:29.854Z,0.73
2023-02-21T12:00:42.986Z,0.60
2023-02-21T12:03:27.721Z,0.50
2023-02-21T12:06:05.366Z,0.40
2023-02-21T12:08:47.882Z,0.65
2023-02-21T12:11:44.114Z,0.50
2023-02-21T12:14:49.794Z,0.65
2023-02-21T12:17:59.041Z,0.60
2023-02-21T12:20:54.803Z,0.70
2023-02-21T12:23:46.588Z,0.88
2023-02-21T12:26:45.956Z,0.70
2023-02-21T12:29:21.485Z,0.70
2023-02-21T12:32:09.660Z,0.85
2023-02-21T12:34:45.451Z,0.68
2023-02-21T12:37:32.379Z,0.50
2023-02-21T12:40:14.128Z,0.60
2023-02-21T12:43:23.118Z,0.60
2023-02-21T12:46:01.820Z,0.70
2023-02-21T12:48:54.247Z,0.82
2023-02-21T12:51:27.371Z,0.80
2023-02-21T12:54:07.716Z,0.65
2023-02-21T12:56:49.663Z,0.70
2023-02-21T12:59:56.772Z,0.60
2023-02-21T13:03:01.239Z,0.80
2023-02-21T13:05:53.404Z,0.70
2023-02-21T13:08:26.209Z,0.70
2023-02-21T13:11:17.020Z,0.70
2023-02-21T13:13:44.299Z,0.68
2023-02-21T13:16:14.359Z,0.80
2023-02-21T13:18:44.710Z,0.73
2023-02-21T13:21:39.033Z,0.80
2023-02-21T13:24:43.447Z,0.90
2023-02-21T13:27:28.355Z,0.90
2023-02-21T13:30:13.529Z,1.02
2023-02-21T13:32:49.652Z,1.27
2023-02-21T13:35:22.269Z,1.17
2023-02-21T13:37:52.383Z,1.08
2023-02-21T13:40:31.562Z,0.90
2023-02-21T13:43:16.557Z,0.85
2023-02-21T13:45:43.492Z,0.98
2023-02-21T13:48:22.776Z,0.82
2023-02-21T13:50:56.076Z,1.00
2023-02-21T13:53:34.006Z,0.82
2023-02-21T13:56:06.883Z,0.90
2023-02-21T13:58:40.510Z,0.60
2023-02-21T14:01:16.276Z,0.57
2023-02-21T14:03:43.368Z,0.95
2023-02-21T14:06:10.305Z,0.90
2023-02-21T14:08:41.124Z,0.65
2023-02-21T14:11:09.669Z,0.60
2023-02-21T14:13:42.192Z,0.80
2023-02-21T14:16:11.945Z,0.80
2023-02-21T14:18:38.902Z,1.20
2023-02-21T14:21:20.706Z,1.25
2023-02-21T14:24:00.802Z,0.90
2023-02-21T14:26:56.948Z,0.90
2023-02-21T14:29:31.878Z,1.00
2023-02-21T14:32:04.866Z,0.90
2023-02-21T14:34:50.008Z,0.70
2023-02-21T14:37:35.504Z,0.57
2023-02-21T14:40:11.145Z,0.40
2023-02-21T14:42:46.268Z,0.45
2023-02-21T14:45:15.891Z,0.50
2023-02-21T14:48:14.863Z,0.28
2023-02-21T14:51:11.704Z,0.50
2023-02-21T14:54:03.518Z,0.40
2023-02-21T14:56:47.355Z,0.57
2023-02-21T14:59:39.157Z,0.57
2023-02-21T15:02:36.075Z,0.40
2023-02-21T15:05:21.887Z,0.40
2023-02-21T15:07:48.736Z,0.50
2023-02-21T15:10:28.545Z,0.50
2023-02-21T15:13:04.189Z,0.35
2023-02-21T15:15:41.538Z,0.38
2023-02-21T15:18:24.430Z,0.30
2023-02-21T15:21:08.715Z,0.32
2023-02-21T15:23:36.502Z,0.43
2023-02-21T15:26:18.779Z,0.30
2023-02-21T15:28:46.538Z,0.40
2023-02-21T15:31:14.741Z,0.20
2023-02-21T15:33:43.883Z,0.40
2023-02-21T15:36:20.921Z,0.35
2023-02-21T15:39:05.456Z,0.30
2023-02-21T15:41:50.291Z,0.25
2023-02-21T15:44:37.035Z,0.50
2023-02-21T15:47:17.966Z,0.60
2023-02-21T15:49:48.698Z,0.30
2023-02-21T15:52:30.152Z,0.57
2023-02-21T15:55:18.966Z,0.70
2023-02-21T15:58:04.192Z,0.50
2023-02-21T16:00:39.758Z,0.52
2023-02-21T16:03:36.583Z,0.88
2023-02-21T16:06:18.346Z,1.23
2023-02-21T16:09:05.614Z,0.70
2023-02-21T16:11:45.868Z,1.08
2023-02-21T16:14:23.292Z,1.00
2023-02-21T16:17:05.769Z,1.10
2023-02-21T16:19:33.641Z,1.02
2023-02-21T16:22:59.592Z,1.40
2023-02-21T16:25:25.410Z,1.13
2023-02-21T16:27:58.071Z,1.08
2023-02-21T16:30:30.439Z,0.98
2023-02-21T16:33:03.417Z,1.30
2023-02-21T16:35:31.557Z,1.13
2023-02-21T16:38:00.717Z,1.25
2023-02-21T16:40:36.052Z,1.08
2023-02-21T16:43:05.038Z,0.98
2023-02-21T16:45:33.182Z,0.88
2023-02-21T16:48:06.579Z,1.00
2023-02-21T16:50:38.999Z,1.02
2023-02-21T16:53:07.176Z,0.70
2023-02-21T16:55:34.133Z,0.80
2023-02-21T16:58:07.268Z,0.60
2023-02-21T17:00:34.750Z,0.50
2023-02-21T17:03:02.058Z,0.30
2023-02-21T17:05:29.575Z,0.50
2023-02-21T17:07:58.579Z,0.30
2023-02-21T17:10:25.769Z,0.30
2023-02-21T17:12:52.723Z,0.40
2023-02-21T17:15:21.756Z,0.30
2023-02-21T17:17:53.478Z,0.28
2023-02-21T17:20:23.813Z,0.70
2023-02-21T17:22:52.023Z,0.50
2023-02-21T17:25:20.563Z,0.60
2023-02-21T17:27:49.222Z,0.35
2023-02-21T17:30:18.593Z,0.50
2023-02-21T17:32:47.328Z,0.40
2023-02-21T17:35:16.422Z,0.85
2023-02-21T17:37:43.936Z,0.55
2023-02-21T17:40:12.158Z,0.40
2023-02-21T17:42:40.817Z,0.65
2023-02-21T17:45:08.478Z,0.50
2023-02-21T17:47:36.954Z,0.65
2023-02-21T17:50:05.447Z,0.55
2023-02-21T17:52:33.147Z,0.40
2023-02-21T17:55:02.784Z,0.55
2023-02-21T17:57:36.470Z,0.65
2023-02-21T18:00:13.570Z,0.77
2023-02-21T18:02:40.712Z,0.77
2023-02-21T18:05:11.016Z,0.80
2023-02-21T18:07:41.123Z,0.60
2023-02-21T18:10:08.502Z,0.60
2023-02-21T18:12:40.165Z,0.77
2023-02-21T18:15:10.180Z,0.80
2023-02-21T18:17:40.994Z,0.80
2023-02-21T18:20:10.474Z,0.68
2023-02-21T18:22:39.399Z,0.50
2023-02-21T18:25:08.756Z,0.70
2023-02-21T18:27:37.968Z,0.70
2023-02-21T18:30:10.192Z,0.60
2023-02-21T18:32:37.252Z,0.50
2023-02-21T18:35:04.599Z,0.60
2023-02-21T18:37:31.480Z,0.50
2023-02-21T18:40:03.474Z,0.57
2023-02-21T18:42:30.382Z,0.60
2023-02-21T18:44:57.940Z,0.50
2023-02-21T18:47:26.557Z,0.60
2023-02-21T18:49:56.285Z,0.65
2023-02-21T18:52:23.367Z,0.60
2023-02-21T18:54:50.815Z,0.77
2023-02-21T18:57:24.519Z,0.80
2023-02-21T18:59:51.634Z,0.60
2023-02-21T19:02:18.982Z,0.43
2023-02-21T19:04:46.501Z,0.50
2023-02-21T19:07:16.916Z,0.60
2023-02-21T19:09:46.427Z,0.68
2023-02-21T19:12:13.407Z,0.80
2023-02-21T19:14:48.686Z,0.60
2023-02-21T19:17:15.732Z,0.60
2023-02-21T19:19:42.713Z,0.77
2023-02-21T19:22:09.624Z,0.93
2023-02-21T19:24:36.624Z,0.80
2023-02-21T19:27:03.837Z,0.85
2023-02-21T19:29:30.813Z,0.90
2023-02-21T19:31:57.857Z,0.98
2023-02-21T19:34:25.205Z,0.82
2023-02-21T19:36:52.388Z,0.60
2023-02-21T19:39:24.601Z,0.60
2023-02-21T19:41:51.491Z,0.40
2023-02-21T19:44:18.472Z,0.50
2023-02-21T19:46:45.571Z,0.40
2023-02-21T19:49:20.610Z,0.43
2023-02-21T19:51:50.402Z,0.60
2023-02-21T19:54:20.937Z,0.40
2023-02-21T19:56:50.032Z,0.30
2023-02-21T19:59:19.090Z,0.63
2023-02-21T20:01:46.242Z,0.40
2023-02-21T20:04:13.377Z,0.52
2023-02-21T20:06:40.503Z,0.50
2023-02-21T20:09:10.362Z,0.45
2023-02-21T20:11:40.370Z,1.15
2023-02-21T20:14:11.543Z,0.60
2023-02-21T20:16:43.855Z,0.43
2023-02-21T20:19:12.498Z,1.10
2023-02-21T20:21:39.828Z,0.80
2023-02-21T20:24:07.437Z,0.70
2023-02-21T20:26:34.527Z,0.95
2023-02-21T20:29:01.751Z,0.88
2023-02-21T20:31:32.617Z,0.65
2023-02-21T20:34:03.127Z,0.80
2023-02-21T20:36:33.123Z,0.82
2023-02-21T20:39:00.733Z,0.75
2023-02-21T20:41:32.849Z,0.82
2023-02-21T20:44:00.617Z,0.55
2023-02-21T20:46:28.908Z,0.70
2023-02-21T20:48:58.818Z,0.60
2023-02-21T20:51:33.719Z,0.40
2023-02-21T20:54:01.298Z,0.55
2023-02-21T20:56:36.604Z,0.40
2023-02-21T20:59:05.111Z,0.47
2023-02-21T21:01:32.095Z,0.50
2023-02-21T21:04:00.702Z,0.40
2023-02-21T21:06:28.093Z,0.50
2023-02-21T21:08:55.041Z,0.50
2023-02-21T21:11:28.917Z,0.43
2023-02-21T21:13:55.879Z,0.50
2023-02-21T21:16:22.875Z,0.63
2023-02-21T21:18:49.832Z,0.50
2023-02-21T21:21:17.042Z,0.43
2023-02-21T21:23:44.185Z,0.63
2023-02-21T21:26:12.272Z,0.57
2023-02-21T21:28:41.363Z,0.70
2023-02-21T21:31:09.023Z,0.50
2023-02-21T21:33:36.081Z,0.40
2023-02-21T21:36:03.549Z,0.60
2023-02-21T21:38:30.715Z,0.50
2023-02-21T21:40:58.007Z,0.60
2023-02-21T21:43:26.555Z,0.47
2023-02-21T21:45:53.531Z,0.52
2023-02-21T21:48:20.514Z,0.40
2023-02-21T21:50:47.456Z,0.40
2023-02-21T21:53:14.535Z,0.50
2023-02-21T21:55:41.493Z,0.63
2023-02-21T21:58:10.685Z,0.57
2023-02-21T22:00:46.877Z,0.50
2023-02-21T22:03:18.374Z,0.50
2023-02-21T22:05:46.798Z,0.47
2023-02-21T22:08:18.724Z,0.50
2023-02-21T22:10:46.086Z,0.68
2023-02-21T22:13:20.725Z,0.50
2023-02-21T22:15:48.082Z,0.63
2023-02-21T22:18:19.419Z,0.60
2023-02-21T22:20:50.419Z,0.50
2023-02-21T22:23:21.366Z,0.65
2023-02-21T22:25:48.928Z,0.77
2023-02-21T22:28:18.647Z,0.57
2023-02-21T22:30:46.330Z,0.50
2023-02-21T22:33:18.210Z,0.75
2023-02-21T22:35:45.602Z,0.70
2023-02-21T22:38:14.391Z,0.70
2023-02-21T22:40:42.538Z,0.50
2023-02-21T22:43:09.617Z,0.77
2023-02-21T22:45:37.648Z,0.80
2023-02-21T22:48:06.988Z,0.80
2023-02-21T22:50:37.129Z,1.00
2023-02-21T22:53:09.875Z,1.00
2023-02-21T22:55:38.018Z,0.80
2023-02-21T22:58:08.265Z,0.82
2023-02-21T23:00:36.505Z,0.93
2023-02-21T23:03:12.845Z,0.80
2023-02-21T23:05:43.784Z,0.90
2023-02-21T23:08:12.961Z,1.23
2023-02-21T23:10:40.689Z,1.08
2023-02-21T23:13:16.284Z,0.95
2023-02-21T23:15:43.992Z,0.70
2023-02-21T23:18:18.219Z,0.90
2023-02-21T23:20:45.203Z,0.90
2023-02-21T23:23:14.167Z,0.90
2023-02-21T23:25:41.168Z,0.90
2023-02-21T23:28:12.226Z,1.00
2023-02-21T23:30:42.505Z,1.00
2023-02-21T23:33:15.279Z,1.00
2023-02-21T23:35:49.450Z,0.82
2023-02-21T23:38:19.572Z,0.70
2023-02-21T23:40:50.599Z,0.80
2023-02-21T23:43:18.517Z,0.90
2023-02-21T23:45:48.334Z,1.63
2023-02-21T23:48:15.811Z,0.93
2023-02-21T23:50:47.181Z,1.02
2023-02-21T23:53:17.000Z,1.20
2023-02-21T23:55:46.548Z,1.05
2023-02-21T23:58:19.040Z,1.10
